Time;durP1;ratioP1;P1;durP2;ratioP2;P2;SDS_P1;SDS_P2;PMS_P1;PMS_P2;Temp;Humidity;BMP_temperature;BMP_pressure;BME280_temperature;BME280_humidity;BME280_pressure;Samples;Min_cycle;Max_cycle;Signal;HPM_P1;HPM_P2
2022/12/10 00:01:59;;;;;;;4.60;4.28;;;13.70;61.00;;;;;;4987536;28;20574;-17
2022/12/10 00:04:24;;;;;;;4.32;4.05;;;13.60;61.00;;;;;;5015912;28;20057;-16
2022/12/10 00:06:50;;;;;;;4.57;4.28;;;13.60;61.10;;;;;;4986864;28;20717;-16
2022/12/10 00:09:16;;;;;;;4.03;3.72;;;13.60;61.20;;;;;;4985501;28;20044;-17
2022/12/10 00:11:42;;;;;;;4.10;3.80;;;13.50;61.20;;;;;;4987541;28;20393;-17
2022/12/10 00:14:08;;;;;;;4.00;3.70;;;13.50;61.50;;;;;;4986650;28;20042;-16
2022/12/10 00:16:34;;;;;;;4.03;3.72;;;13.50;61.30;;;;;;4987233;28;20050;-17
2022/12/10 00:18:59;;;;;;;4.40;4.10;;;13.60;61.10;;;;;;4986636;28;20046;-17
2022/12/10 00:21:30;;;;;;;4.00;3.70;;;13.50;61.00;;;;;;4985776;28;20527;-16
2022/12/10 00:23:55;;;;;;;3.97;3.67;;;13.60;60.90;;;;;;4981792;28;20125;-16
2022/12/10 00:26:26;;;;;;;4.00;3.70;;;13.60;61.80;;;;;;4985622;28;20122;-16
2022/12/10 00:28:52;;;;;;;3.67;3.45;;;13.50;61.10;;;;;;4984388;28;20034;-16
2022/12/10 00:31:23;;;;;;;3.83;3.53;;;13.50;61.00;;;;;;4985968;28;20043;-16
2022/12/10 00:33:49;;;;;;;4.05;3.78;;;13.50;61.20;;;;;;4985627;28;20065;-16
2022/12/10 00:36:17;;;;;;;3.70;3.50;;;13.50;61.30;;;;;;4986729;28;20046;-16
2022/12/10 00:38:43;;;;;;;4.05;3.75;;;13.50;61.20;;;;;;4984472;28;20050;-16
2022/12/10 00:41:08;;;;;;;3.95;3.70;;;13.60;60.80;;;;;;5000554;28;20039;-16
2022/12/10 00:43:34;;;;;;;3.60;3.40;;;13.50;60.90;;;;;;4989119;28;20046;-16
2022/12/10 00:46:00;;;;;;;4.03;3.80;;;13.50;61.10;;;;;;4990288;28;20057;-16
2022/12/10 00:48:25;;;;;;;3.65;3.35;;;13.40;61.10;;;;;;4988043;28;20810;-16
2022/12/10 00:51:03;;;;;;;3.90;3.70;;;13.50;61.00;;;;;;4989614;28;20049;-17
2022/12/10 00:53:29;;;;;;;3.53;3.33;;;13.40;61.10;;;;;;4990577;28;20402;-18
2022/12/10 00:55:55;;;;;;;3.85;3.65;;;13.40;61.10;;;;;;4990104;28;20046;-20
2022/12/10 00:58:21;;;;;;;3.50;3.30;;;13.30;61.20;;;;;;4989269;28;20116;-18
2022/12/10 01:00:47;;;;;;;3.95;3.65;;;13.40;61.10;;;;;;4989043;28;20041;-18
2022/12/10 01:03:12;;;;;;;3.70;3.47;;;13.40;61.00;;;;;;4985199;28;20037;-23
2022/12/10 01:05:38;;;;;;;4.13;3.83;;;13.40;61.10;;;;;;4986992;28;20042;-18
2022/12/10 01:08:04;;;;;;;4.13;3.92;;;13.40;61.10;;;;;;4990483;28;20041;-19
2022/12/10 01:10:29;;;;;;;3.95;3.65;;;13.40;60.90;;;;;;4987786;28;20066;-19
2022/12/10 01:12:55;;;;;;;3.90;3.70;;;13.30;61.10;;;;;;4988550;28;20034;-18
2022/12/10 01:15:20;;;;;;;4.40;4.10;;;13.30;61.30;;;;;;4986828;28;20056;-18
2022/12/10 01:17:46;;;;;;;3.67;3.45;;;13.30;61.10;;;;;;4990780;28;20092;-19
2022/12/10 01:20:12;;;;;;;4.20;3.90;;;13.30;61.20;;;;;;4989799;28;20038;-18
2022/12/10 01:22:37;;;;;;;3.50;3.30;;;13.30;61.10;;;;;;4988894;28;20046;-18
2022/12/10 01:25:03;;;;;;;3.60;3.40;;;13.30;61.20;;;;;;4986767;28;20058;-27
2022/12/10 01:27:29;;;;;;;3.95;3.75;;;13.30;60.80;;;;;;4986072;28;20056;-22
2022/12/10 01:29:54;;;;;;;4.22;4.03;;;13.30;61.10;;;;;;4983173;28;20040;-18
2022/12/10 01:32:20;;;;;;;3.85;3.65;;;13.30;61.20;;;;;;4987799;28;20068;-18
2022/12/10 01:34:45;;;;;;;3.90;3.70;;;13.30;60.80;;;;;;4989224;28;20983;-18
2022/12/10 01:37:11;;;;;;;4.22;3.92;;;13.30;60.90;;;;;;4989394;28;20046;-25
2022/12/10 01:39:37;;;;;;;4.15;3.95;;;13.30;60.90;;;;;;4990271;28;20034;-18
2022/12/10 01:42:03;;;;;;;3.53;3.33;;;13.30;60.90;;;;;;4989157;28;20046;-18
2022/12/10 01:44:28;;;;;;;3.63;3.42;;;13.30;61.10;;;;;;4988702;28;20117;-18
2022/12/10 01:46:55;;;;;;;3.92;3.65;;;13.30;61.20;;;;;;4985287;28;20043;-18
2022/12/10 01:49:24;;;;;;;3.80;3.50;;;13.20;61.10;;;;;;4982429;28;20097;-19
2022/12/10 01:51:53;;;;;;;3.88;3.67;;;13.30;61.10;;;;;;4983303;28;20042;-18
2022/12/10 01:54:27;;;;;;;3.65;3.35;;;13.30;60.90;;;;;;4984762;28;20500;-18
2022/12/10 01:57:01;;;;;;;3.95;3.75;;;13.30;60.90;;;;;;4986844;28;20030;-19
2022/12/10 01:59:27;;;;;;;3.47;3.28;;;13.20;60.90;;;;;;4983960;28;20072;-18
2022/12/10 02:01:56;;;;;;;3.60;3.30;;;13.20;61.10;;;;;;4985034;28;20113;-18
2022/12/10 02:04:35;;;;;;;3.40;3.20;;;13.30;61.00;;;;;;4983996;28;20037;-19
2022/12/10 02:07:16;;;;;;;3.58;3.38;;;13.20;60.90;;;;;;4986328;28;20181;-19
2022/12/10 02:10:06;;;;;;;3.90;3.70;;;13.20;60.90;;;;;;4983591;28;20057;-18
2022/12/10 02:12:37;;;;;;;3.80;3.60;;;13.20;61.00;;;;;;4982686;28;20054;-18
2022/12/10 02:15:27;;;;;;;3.38;3.17;;;13.20;61.00;;;;;;4982335;28;20042;-22
2022/12/10 02:18:09;;;;;;;3.92;3.63;;;13.30;60.70;;;;;;4970254;28;20479;-18
2022/12/10 02:20:40;;;;;;;3.72;3.50;;;13.20;61.10;;;;;;4984647;28;20048;-18
2022/12/10 02:23:11;;;;;;;3.70;3.40;;;13.20;61.80;;;;;;4987202;28;20415;-18
2022/12/10 02:25:48;;;;;;;4.00;3.70;;;13.20;60.90;;;;;;4988081;28;20564;-18
2022/12/10 02:28:51;;;;;;;3.83;3.63;;;13.20;60.90;;;;;;4986109;28;20046;-17
2022/12/10 02:31:19;;;;;;;4.20;4.00;;;13.10;60.80;;;;;;4985382;28;20055;-18
2022/12/10 02:33:48;;;;;;;3.45;3.25;;;13.10;61.00;;;;;;4987634;28;20061;-18
2022/12/10 02:36:14;;;;;;;3.45;3.25;;;13.10;60.90;;;;;;4987177;28;20406;-17
2022/12/10 02:38:39;;;;;;;3.42;3.22;;;13.10;61.00;;;;;;4989021;28;20141;-20
2022/12/10 02:41:07;;;;;;;3.40;3.20;;;13.20;60.90;;;;;;4987489;28;20042;-20
2022/12/10 02:43:33;;;;;;;3.67;3.47;;;13.10;60.80;;;;;;4985735;28;20046;-18
2022/12/10 02:45:59;;;;;;;3.95;3.65;;;13.10;61.00;;;;;;4986666;28;20046;-18
2022/12/10 02:48:25;;;;;;;4.07;3.78;;;13.10;61.00;;;;;;4985180;28;20472;-18
2022/12/10 02:50:50;;;;;;;3.60;3.40;;;13.10;60.90;;;;;;4986795;28;20070;-18
2022/12/10 02:53:16;;;;;;;3.78;3.42;;;13.10;61.00;;;;;;4985763;28;20052;-18
2022/12/10 02:56:20;;;;;;;3.67;3.47;;;13.10;60.80;;;;;;4988971;28;20050;-19
2022/12/10 02:59:21;;;;;;;3.70;3.50;;;13.10;60.90;;;;;;4983224;28;20046;-18
2022/12/10 03:02:09;;;;;;;3.80;3.60;;;13.10;60.90;;;;;;4985601;28;20138;-18
2022/12/10 03:04:53;;;;;;;4.10;3.80;;;13.10;61.10;;;;;;4986004;28;20109;-21
2022/12/10 03:07:22;;;;;;;4.32;4.13;;;13.10;60.90;;;;;;4984822;28;20051;-19
2022/12/10 03:09:58;;;;;;;4.18;3.88;;;13.00;61.50;;;;;;4986341;28;20402;-18
2022/12/10 03:12:35;;;;;;;3.70;3.50;;;13.00;61.00;;;;;;4970818;28;20043;-18
2022/12/10 03:15:04;;;;;;;3.85;3.65;;;13.00;60.80;;;;;;4983435;28;20046;-18
2022/12/10 03:17:30;;;;;;;3.50;3.30;;;13.00;60.90;;;;;;4986060;28;20050;-18
2022/12/10 03:19:56;;;;;;;3.83;3.63;;;13.00;61.00;;;;;;4985335;28;20077;-23
2022/12/10 03:22:21;;;;;;;3.53;3.22;;;13.00;60.90;;;;;;4981976;28;20047;-18
2022/12/10 03:24:47;;;;;;;3.60;3.40;;;13.00;60.90;;;;;;4987125;28;20041;-18
2022/12/10 03:27:13;;;;;;;4.10;3.80;;;13.00;60.70;;;;;;4983424;28;20043;-18
2022/12/10 03:29:50;;;;;;;4.55;4.15;;;13.00;60.80;;;;;;4998135;28;20038;-18
2022/12/10 03:32:16;;;;;;;3.55;3.35;;;13.00;60.80;;;;;;4987723;28;20486;-17
2022/12/10 03:34:42;;;;;;;3.33;3.13;;;13.00;60.80;;;;;;4985677;28;20046;-18
2022/12/10 03:37:08;;;;;;;3.67;3.47;;;12.90;61.00;;;;;;4983049;28;20487;-18
2022/12/10 03:39:33;;;;;;;4.55;4.25;;;13.00;60.90;;;;;;4985275;28;20038;-19
2022/12/10 03:41:59;;;;;;;3.40;3.20;;;12.90;60.90;;;;;;4985111;28;20039;-18
2022/12/10 03:44:32;;;;;;;3.80;3.60;;;12.90;60.90;;;;;;4986009;28;20058;-18
2022/12/10 03:46:57;;;;;;;3.20;3.00;;;12.90;60.80;;;;;;4987167;28;20050;-18
2022/12/10 03:49:23;;;;;;;3.60;3.40;;;12.90;60.70;;;;;;4984613;28;20049;-18
2022/12/10 03:51:49;;;;;;;3.28;3.08;;;12.90;60.70;;;;;;4987663;28;20452;-18
2022/12/10 03:54:14;;;;;;;3.50;3.30;;;12.90;60.90;;;;;;4986835;28;20034;-22
2022/12/10 03:56:40;;;;;;;3.90;3.70;;;12.90;60.70;;;;;;4986862;28;20069;-18
2022/12/10 03:59:06;;;;;;;3.60;3.40;;;12.90;60.70;;;;;;4987034;28;20072;-18
2022/12/10 04:01:31;;;;;;;3.58;3.38;;;12.90;60.90;;;;;;4986219;28;20137;-19
2022/12/10 04:03:57;;;;;;;3.65;3.38;;;12.90;60.80;;;;;;4987026;28;20105;-18
2022/12/10 04:06:22;;;;;;;4.15;3.85;;;12.90;60.70;;;;;;4986943;28;20605;-18
2022/12/10 04:08:48;;;;;;;3.72;3.53;;;12.90;60.90;;;;;;4987535;28;20225;-18
2022/12/10 04:11:14;;;;;;;3.58;3.38;;;12.90;60.80;;;;;;4985535;28;20077;-17
2022/12/10 04:16:27;;;;;;;3.60;3.40;;;12.90;60.90;;;;;;4985704;28;20052;-18
2022/12/10 04:19:09;;;;;;;3.65;3.45;;;13.00;60.80;;;;;;4990094;28;20494;-18
2022/12/10 04:27:16;;;;;;;3.42;3.22;;;12.90;60.80;;;;;;4988744;28;20092;-18
2022/12/10 04:29:42;;;;;;;3.33;3.13;;;12.90;60.70;;;;;;4988618;28;20117;-18
2022/12/10 04:32:07;;;;;;;3.92;3.72;;;12.90;60.90;;;;;;4986291;28;20484;-28
2022/12/10 04:34:33;;;;;;;3.90;3.60;;;12.80;60.80;;;;;;4990672;28;20054;-20
2022/12/10 04:36:59;;;;;;;4.05;3.85;;;12.90;60.70;;;;;;4990445;28;20092;-18
2022/12/10 04:39:25;;;;;;;3.75;3.45;;;12.90;61.00;;;;;;4984297;28;20058;-18
2022/12/10 04:41:50;;;;;;;4.40;4.05;;;12.90;60.80;;;;;;4985628;28;20045;-18
2022/12/10 04:44:16;;;;;;;3.42;3.22;;;12.90;60.70;;;;;;4987988;28;20335;-18
2022/12/10 04:46:42;;;;;;;4.00;3.80;;;12.90;60.70;;;;;;4990303;28;20057;-19
2022/12/10 04:49:08;;;;;;;3.42;3.22;;;12.90;60.40;;;;;;4989549;28;20117;-19
2022/12/10 04:51:33;;;;;;;4.05;3.75;;;12.90;60.50;;;;;;4988863;28;20093;-18
2022/12/10 04:53:59;;;;;;;3.03;2.92;;;12.80;60.50;;;;;;4989939;28;20042;-18
2022/12/10 04:56:25;;;;;;;3.55;3.35;;;12.90;60.80;;;;;;4980515;28;20507;-22
2022/12/10 04:58:50;;;;;;;3.17;2.97;;;12.90;60.70;;;;;;4990704;28;20050;-18
2022/12/10 05:01:17;;;;;;;3.40;3.20;;;12.90;60.60;;;;;;4985497;28;20125;-18
2022/12/10 05:03:43;;;;;;;2.92;2.72;;;12.90;60.60;;;;;;4989144;28;20198;-19
2022/12/10 05:06:11;;;;;;;2.88;2.67;;;12.90;60.60;;;;;;4989929;28;20151;-18
2022/12/10 05:08:37;;;;;;;3.75;3.50;;;12.90;60.70;;;;;;4986197;28;20132;-19
2022/12/10 05:11:04;;;;;;;3.53;3.33;;;12.80;60.70;;;;;;4989316;28;20454;-18
2022/12/10 05:13:29;;;;;;;3.42;3.20;;;12.80;60.70;;;;;;4987105;28;20038;-18
2022/12/10 05:15:56;;;;;;;3.30;3.10;;;12.90;60.70;;;;;;4989410;28;20056;-19
2022/12/10 05:18:22;;;;;;;3.30;3.10;;;12.90;60.60;;;;;;4989733;28;20046;-18
2022/12/10 05:20:47;;;;;;;3.72;3.53;;;12.80;60.60;;;;;;4989134;28;20137;-18
2022/12/10 05:23:28;;;;;;;3.67;3.47;;;12.90;60.50;;;;;;4990390;28;20080;-24
2022/12/10 05:26:11;;;;;;;3.10;2.97;;;12.80;60.70;;;;;;4988470;28;20054;-19
2022/12/10 05:28:38;;;;;;;4.07;3.85;;;12.80;60.70;;;;;;4984480;28;20116;-18
2022/12/10 05:31:03;;;;;;;3.33;3.13;;;12.80;60.80;;;;;;4990260;28;20117;-27
2022/12/10 05:33:29;;;;;;;2.85;2.75;;;12.80;60.80;;;;;;4989734;28;20042;-17
2022/12/10 05:36:02;;;;;;;3.38;3.17;;;12.90;60.70;;;;;;4990188;28;20038;-18
2022/12/10 05:38:28;;;;;;;3.53;3.33;;;12.80;60.70;;;;;;4988530;28;20042;-18
2022/12/10 05:40:54;;;;;;;3.38;3.17;;;12.80;60.50;;;;;;4988149;28;20057;-18
2022/12/10 05:43:20;;;;;;;3.50;3.30;;;12.70;60.70;;;;;;4989841;28;20478;-18
2022/12/10 05:45:45;;;;;;;3.30;3.10;;;12.80;60.60;;;;;;4988598;28;20100;-18
2022/12/10 05:48:11;;;;;;;3.33;3.13;;;12.80;60.70;;;;;;4990106;28;20154;-18
2022/12/10 05:50:37;;;;;;;3.72;3.53;;;12.80;60.60;;;;;;4988980;28;20515;-18
2022/12/10 05:53:03;;;;;;;3.25;3.05;;;12.80;60.60;;;;;;4988675;28;20057;-18
2022/12/10 05:55:28;;;;;;;2.83;2.63;;;12.80;60.70;;;;;;4986623;28;20034;-17
2022/12/10 05:57:55;;;;;;;3.38;3.17;;;12.80;60.60;;;;;;4988587;28;20038;-18
2022/12/10 06:00:23;;;;;;;2.78;2.58;;;12.70;60.70;;;;;;4989058;28;20038;-18
2022/12/10 06:02:49;;;;;;;3.10;2.90;;;12.70;60.60;;;;;;4988632;28;20069;-18
2022/12/10 06:05:15;;;;;;;3.22;3.03;;;12.70;60.70;;;;;;4989404;28;20043;-21
2022/12/10 06:07:41;;;;;;;3.97;3.30;;;12.70;60.50;;;;;;4987917;28;20042;-22
2022/12/10 06:10:07;;;;;;;5.63;3.55;;;12.70;60.50;;;;;;4988404;28;20411;-18
2022/12/10 06:12:33;;;;;;;3.30;3.10;;;12.70;60.60;;;;;;4986657;28;20050;-18
2022/12/10 06:14:58;;;;;;;3.20;3.00;;;12.70;60.70;;;;;;4986947;28;20521;-18
2022/12/10 06:17:24;;;;;;;3.50;3.30;;;12.70;60.50;;;;;;4986302;28;20149;-17
2022/12/10 06:19:49;;;;;;;2.92;2.83;;;12.70;60.60;;;;;;4987795;28;20483;-18
2022/12/10 06:22:15;;;;;;;2.90;2.70;;;12.80;60.50;;;;;;4989248;28;20050;-18
2022/12/10 06:24:40;;;;;;;3.10;2.90;;;12.80;60.50;;;;;;4987649;28;20115;-18
2022/12/10 06:27:06;;;;;;;3.20;3.00;;;12.70;60.50;;;;;;4986740;28;20309;-18
2022/12/10 06:29:32;;;;;;;2.47;2.38;;;12.70;60.60;;;;;;4985365;28;20038;-18
2022/12/10 06:31:57;;;;;;;2.97;2.78;;;12.80;60.40;;;;;;4986743;28;20050;-18
2022/12/10 06:34:23;;;;;;;3.22;3.03;;;12.80;60.30;;;;;;4987943;28;20391;-18
2022/12/10 06:36:49;;;;;;;2.80;2.70;;;12.80;60.60;;;;;;4983669;28;20054;-19
2022/12/10 06:39:14;;;;;;;3.28;3.03;;;12.80;60.30;;;;;;4986149;28;20512;-18
2022/12/10 06:41:43;;;;;;;3.40;3.20;;;12.70;60.50;;;;;;4981210;28;20050;-18
2022/12/10 06:44:12;;;;;;;2.60;2.50;;;12.80;60.60;;;;;;4987328;28;20065;-17
2022/12/10 06:46:38;;;;;;;3.20;3.00;;;12.70;60.40;;;;;;4985198;28;20507;-18
2022/12/10 06:49:04;;;;;;;3.00;2.80;;;12.80;60.40;;;;;;4985077;28;20141;-18
2022/12/10 06:51:29;;;;;;;3.15;2.95;;;12.80;60.40;;;;;;4987552;28;20559;-18
2022/12/10 06:53:55;;;;;;;3.05;2.85;;;12.70;60.40;;;;;;4987110;28;20052;-18
2022/12/10 06:56:21;;;;;;;2.85;2.65;;;12.70;60.60;;;;;;4987673;28;20101;-18
2022/12/10 06:58:47;;;;;;;2.72;2.63;;;12.70;60.60;;;;;;4987378;28;20058;-18
2022/12/10 07:01:14;;;;;;;2.83;2.63;;;12.70;60.60;;;;;;4987875;28;20109;-18
2022/12/10 07:03:40;;;;;;;2.90;2.70;;;12.70;60.60;;;;;;4985754;28;20469;-18
2022/12/10 07:06:07;;;;;;;2.80;2.60;;;12.70;60.60;;;;;;4988362;28;20150;-18
2022/12/10 07:08:32;;;;;;;2.40;2.30;;;12.60;60.50;;;;;;4986645;28;20077;-18
2022/12/10 07:10:58;;;;;;;2.53;2.42;;;12.70;60.50;;;;;;4634830;28;10000491;-24
2022/12/10 07:13:24;;;;;;;2.55;2.45;;;12.60;60.50;;;;;;4979605;28;20056;-18
2022/12/10 07:15:49;;;;;;;2.80;2.60;;;12.70;60.50;;;;;;4986809;28;20137;-19
2022/12/10 07:18:15;;;;;;;2.97;2.78;;;12.70;60.40;;;;;;4975759;28;20708;-17
2022/12/10 07:20:40;;;;;;;3.13;2.92;;;12.80;60.30;;;;;;4982152;28;20034;-18
2022/12/10 07:23:06;;;;;;;2.72;2.63;;;12.70;60.40;;;;;;4636050;28;10000476;-18
2022/12/10 07:25:32;;;;;;;3.25;3.05;;;12.70;60.60;;;;;;4980537;28;20092;-18
2022/12/10 07:27:58;;;;;;;3.30;3.10;;;12.70;60.60;;;;;;4981221;28;20093;-18
2022/12/10 07:30:24;;;;;;;3.47;3.28;;;12.70;60.60;;;;;;4976382;28;20050;-18
2022/12/10 07:32:49;;;;;;;2.97;2.80;;;12.70;61.30;;;;;;4969340;28;20051;-18
2022/12/10 07:35:15;;;;;;;2.92;2.72;;;12.70;60.50;;;;;;4970433;28;20065;-18
2022/12/10 07:37:40;;;;;;;2.92;2.72;;;12.80;60.80;;;;;;4977009;28;20046;-19
2022/12/10 07:40:07;;;;;;;2.85;2.65;;;12.70;60.50;;;;;;4978718;28;20042;-18
2022/12/10 07:42:32;;;;;;;2.35;2.20;;;12.80;60.60;;;;;;4977332;28;20427;-18
2022/12/10 07:44:58;;;;;;;2.95;2.75;;;12.80;60.40;;;;;;4974779;28;20047;-22
2022/12/10 07:47:23;;;;;;;3.53;2.60;;;12.70;60.80;;;;;;4978231;28;20062;-18
2022/12/10 07:49:49;;;;;;;2.95;2.75;;;12.80;60.80;;;;;;4974248;28;20062;-18
2022/12/10 07:52:14;;;;;;;3.00;2.80;;;12.80;61.00;;;;;;4976335;28;20595;-18
2022/12/10 07:54:40;;;;;;;3.03;2.83;;;12.80;60.90;;;;;;4984590;28;20042;-18
2022/12/10 07:57:06;;;;;;;2.90;2.70;;;12.70;60.70;;;;;;4985751;28;20050;-18
2022/12/10 07:59:31;;;;;;;2.72;2.60;;;12.80;61.00;;;;;;4977831;28;20173;-18
2022/12/10 08:01:57;;;;;;;2.95;2.75;;;12.80;61.00;;;;;;4981265;28;20057;-18
2022/12/10 08:04:22;;;;;;;3.20;3.00;;;12.80;61.00;;;;;;4979511;28;20045;-18
2022/12/10 08:06:48;;;;;;;2.97;2.85;;;12.70;60.90;;;;;;4980357;28;20052;-18
2022/12/10 08:09:14;;;;;;;3.33;3.03;;;12.80;61.00;;;;;;4980802;28;20047;-18
2022/12/10 08:11:39;;;;;;;2.90;2.70;;;12.70;61.20;;;;;;4976430;28;20527;-18
2022/12/10 08:14:05;;;;;;;3.85;3.60;;;12.70;61.30;;;;;;4980171;28;20054;-23
2022/12/10 08:16:31;;;;;;;3.80;3.60;;;12.70;61.30;;;;;;4980983;28;20030;-17
2022/12/10 08:18:57;;;;;;;5.00;4.50;;;12.70;61.20;;;;;;4982657;28;20046;-18
2022/12/10 08:21:25;;;;;;;6.25;5.65;;;12.70;61.40;;;;;;4983411;28;20534;-18
2022/12/10 08:23:50;;;;;;;5.97;5.43;;;12.70;61.40;;;;;;4977486;28;20084;-18
2022/12/10 08:26:21;;;;;;;6.90;6.35;;;12.70;61.40;;;;;;4981721;28;20086;-18
2022/12/10 08:28:46;;;;;;;9.77;7.65;;;12.70;61.40;;;;;;4982225;28;20641;-18
2022/12/10 08:31:13;;;;;;;8.20;7.40;;;12.80;61.40;;;;;;4979037;28;20046;-18
2022/12/10 08:33:38;;;;;;;9.77;8.50;;;12.70;61.30;;;;;;4985509;28;20050;-18
2022/12/10 08:36:05;;;;;;;9.70;8.05;;;12.70;61.50;;;;;;4978563;28;20053;-18
2022/12/10 08:38:31;;;;;;;11.57;9.07;;;12.70;61.40;;;;;;4987581;28;20042;-19
2022/12/10 08:40:57;;;;;;;9.85;8.82;;;12.70;61.30;;;;;;4983311;28;20051;-18
2022/12/10 08:43:22;;;;;;;13.68;9.07;;;12.70;61.30;;;;;;4975420;28;20081;-18
2022/12/10 08:45:48;;;;;;;11.45;9.32;;;12.70;61.30;;;;;;4980262;28;20121;-18
2022/12/10 08:48:13;;;;;;;12.85;9.88;;;12.80;61.40;;;;;;4984549;28;20039;-18
2022/12/10 08:50:39;;;;;;;13.15;9.80;;;12.70;61.20;;;;;;4985593;28;20047;-18
2022/12/10 08:53:05;;;;;;;12.30;9.68;;;12.70;61.20;;;;;;4987706;28;20471;-17
2022/12/10 08:55:30;;;;;;;13.73;10.85;;;12.70;61.30;;;;;;4988301;28;20423;-17
2022/12/10 08:57:57;;;;;;;16.15;12.48;;;12.70;61.30;;;;;;4987124;28;20145;-18
2022/12/10 09:00:23;;;;;;;14.98;12.00;;;12.80;61.00;;;;;;4987491;28;20693;-18
2022/12/10 09:02:49;;;;;;;16.23;11.63;;;12.90;60.60;;;;;;4988514;28;20417;-28
2022/12/10 09:05:14;;;;;;;13.45;11.00;;;12.80;60.80;;;;;;4988802;28;20105;-18
2022/12/10 09:07:40;;;;;;;13.05;11.00;;;12.80;61.10;;;;;;4988858;28;20429;-18
2022/12/10 09:10:06;;;;;;;13.15;10.68;;;12.80;61.10;;;;;;4989240;28;20461;-18
2022/12/10 09:12:33;;;;;;;11.70;9.75;;;12.80;61.10;;;;;;4988510;28;20042;-18
2022/12/10 09:14:59;;;;;;;12.95;10.07;;;12.80;60.80;;;;;;4990276;28;20047;-18
2022/12/10 09:17:25;;;;;;;14.20;10.27;;;12.80;60.60;;;;;;4988808;28;20504;-18
2022/12/10 09:19:50;;;;;;;14.82;10.90;;;12.90;60.60;;;;;;4988247;28;20042;-18
2022/12/10 09:22:16;;;;;;;11.55;9.07;;;12.90;60.30;;;;;;4986577;28;20065;-18
2022/12/10 09:24:42;;;;;;;14.32;10.20;;;13.00;61.00;;;;;;4988366;28;20066;-21
2022/12/10 09:27:07;;;;;;;10.95;9.48;;;12.90;60.30;;;;;;4987961;28;20097;-18
2022/12/10 09:29:33;;;;;;;13.38;10.23;;;12.90;60.30;;;;;;4987417;28;20117;-18
2022/12/10 09:31:58;;;;;;;13.07;9.80;;;13.00;60.30;;;;;;4986231;28;20116;-18
2022/12/10 09:34:24;;;;;;;10.80;9.68;;;13.00;60.40;;;;;;4989232;28;20117;-18
2022/12/10 09:36:49;;;;;;;10.25;9.02;;;13.00;60.20;;;;;;4988535;28;20093;-18
2022/12/10 09:39:15;;;;;;;11.23;9.48;;;13.00;60.50;;;;;;4987486;28;20129;-19
2022/12/10 09:41:46;;;;;;;10.73;9.15;;;13.00;60.20;;;;;;4987126;28;20054;-18
2022/12/10 09:44:40;;;;;;;11.82;9.27;;;13.00;60.40;;;;;;4987478;28;20400;-25
2022/12/10 09:47:09;;;;;;;12.60;9.45;;;13.10;60.30;;;;;;4984932;28;20039;-18
2022/12/10 09:49:50;;;;;;;10.90;9.57;;;13.10;60.30;;;;;;4983385;28;20126;-18
2022/12/10 09:52:21;;;;;;;10.55;9.25;;;13.10;60.10;;;;;;4988997;28;20049;-18
2022/12/10 09:54:54;;;;;;;13.07;9.02;;;13.10;60.70;;;;;;4987163;28;20069;-18
2022/12/10 09:57:38;;;;;;;9.88;8.85;;;13.20;59.70;;;;;;4987891;28;20053;-18
2022/12/10 10:00:07;;;;;;;10.00;8.98;;;13.20;59.70;;;;;;4985422;28;20074;-18
2022/12/10 10:02:32;;;;;;;11.57;8.55;;;13.20;59.60;;;;;;4986623;28;20118;-19
2022/12/10 10:05:06;;;;;;;10.63;8.63;;;13.20;59.70;;;;;;4986487;28;20252;-23
2022/12/10 10:07:52;;;;;;;9.95;8.95;;;13.10;59.70;;;;;;4984494;28;20105;-18
2022/12/10 10:10:28;;;;;;;10.10;9.02;;;13.20;59.80;;;;;;4975217;28;20042;-18
2022/12/10 10:13:00;;;;;;;10.32;8.48;;;13.20;59.90;;;;;;4983915;28;20049;-18
2022/12/10 10:15:30;;;;;;;9.35;8.30;;;13.20;59.90;;;;;;4986906;28;20034;-17
2022/12/10 10:17:56;;;;;;;8.82;7.93;;;13.20;60.30;;;;;;4987391;28;20077;-18
2022/12/10 10:20:22;;;;;;;8.35;7.53;;;13.20;60.50;;;;;;4999138;28;20045;-18
2022/12/10 10:22:47;;;;;;;9.43;8.43;;;13.20;60.40;;;;;;4984700;28;20042;-18
2022/12/10 10:25:17;;;;;;;8.57;7.68;;;13.20;60.40;;;;;;4984521;28;20470;-18
2022/12/10 10:27:43;;;;;;;8.25;7.40;;;13.30;60.30;;;;;;4980095;28;20129;-18
2022/12/10 10:30:17;;;;;;;8.48;7.57;;;13.30;60.30;;;;;;4986752;28;20697;-18
2022/12/10 10:32:45;;;;;;;8.77;7.88;;;13.30;60.40;;;;;;4983659;28;20117;-20
2022/12/10 10:35:20;;;;;;;8.80;7.88;;;13.30;60.40;;;;;;4984985;28;20057;-18
2022/12/10 10:37:46;;;;;;;8.30;7.43;;;13.30;60.30;;;;;;5013593;28;20061;-17
2022/12/10 10:40:28;;;;;;;11.00;7.80;;;13.30;60.20;;;;;;4986361;28;20042;-19
2022/12/10 10:42:55;;;;;;;8.80;7.88;;;13.40;60.30;;;;;;4986500;28;20050;-19
2022/12/10 10:45:39;;;;;;;8.68;7.88;;;13.40;60.20;;;;;;4987146;28;20054;-18
2022/12/10 10:48:05;;;;;;;;;;;13.40;60.10;;;;;;5017533;28;20097;-19
2022/12/10 10:50:30;;;;;;;9.13;8.27;;;13.50;60.00;;;;;;4988112;28;19918;-18
2022/12/10 10:52:56;;;;;;;8.95;7.90;;;13.50;59.80;;;;;;4986764;28;20081;-18
2022/12/10 10:55:34;;;;;;;8.05;7.32;;;13.50;59.80;;;;;;4987275;28;20459;-19
2022/12/10 10:58:00;;;;;;;8.23;7.38;;;13.50;59.80;;;;;;4987846;28;20415;-18
2022/12/10 11:00:25;;;;;;;9.25;7.65;;;13.50;59.90;;;;;;4983492;28;20038;-18
2022/12/10 11:02:51;;;;;;;7.80;7.05;;;13.40;60.00;;;;;;4985858;28;20093;-18
2022/12/10 11:05:29;;;;;;;7.70;6.90;;;13.40;60.00;;;;;;4980898;28;20229;-18
2022/12/10 11:08:05;;;;;;;7.47;6.78;;;13.40;60.00;;;;;;4987520;28;20519;-18
2022/12/10 11:10:31;;;;;;;7.88;7.15;;;13.50;60.00;;;;;;4985534;28;20042;-17
2022/12/10 11:13:00;;;;;;;8.48;7.63;;;13.60;59.90;;;;;;4985682;28;20137;-18
2022/12/10 11:15:33;;;;;;;7.43;6.68;;;13.60;59.80;;;;;;4989485;28;20050;-18
2022/12/10 11:17:59;;;;;;;7.15;6.57;;;13.60;59.70;;;;;;4987900;28;20101;-18
2022/12/10 11:20:30;;;;;;;7.05;6.45;;;13.60;59.70;;;;;;4986793;28;20030;-18
2022/12/10 11:23:08;;;;;;;8.48;7.43;;;13.60;59.60;;;;;;4988045;28;20045;-19
2022/12/10 11:26:09;;;;;;;7.28;6.57;;;13.60;59.70;;;;;;4987188;28;20460;-18
2022/12/10 11:28:56;;;;;;;7.47;6.78;;;13.60;59.70;;;;;;4946132;28;20592;-19
2022/12/10 11:31:48;;;;;;;7.63;6.90;;;13.70;59.70;;;;;;4961273;28;20043;-18
2022/12/10 11:34:28;;;;;;;7.65;6.95;;;13.70;59.60;;;;;;4950602;28;20666;-18
2022/12/10 11:37:17;;;;;;;7.35;6.60;;;13.90;59.30;;;;;;4933287;28;20682;-19
2022/12/10 11:39:55;;;;;;;6.82;6.15;;;13.90;59.10;;;;;;4950657;28;20571;-19
2022/12/10 11:42:27;;;;;;;7.43;6.50;;;13.90;59.10;;;;;;4925212;28;20062;-17
2022/12/10 11:45:18;;;;;;;6.93;6.28;;;13.90;59.00;;;;;;4943658;28;20118;-18
2022/12/10 11:47:55;;;;;;;6.85;6.18;;;13.90;59.00;;;;;;4942475;28;20043;-22
2022/12/10 11:50:32;;;;;;;6.72;6.13;;;13.90;59.10;;;;;;4952293;28;20047;-18
2022/12/10 11:53:29;;;;;;;7.05;6.35;;;13.80;59.20;;;;;;4946863;28;20062;-18
2022/12/10 11:56:13;;;;;;;7.05;6.40;;;13.80;59.30;;;;;;4932663;28;20039;-18
2022/12/10 11:58:50;;;;;;;7.13;6.53;;;13.90;59.10;;;;;;4948704;28;20094;-18
2022/12/10 12:01:40;;;;;;;6.97;6.38;;;13.80;59.20;;;;;;4934269;28;20043;-18
2022/12/10 12:04:15;;;;;;;6.28;5.70;;;14.00;59.20;;;;;;4976812;28;20423;-18
2022/12/10 12:07:02;;;;;;;6.15;5.55;;;13.90;59.10;;;;;;4978553;28;20070;-18
2022/12/10 12:09:49;;;;;;;5.50;5.10;;;14.00;59.10;;;;;;4982961;28;20038;-21
2022/12/10 12:12:27;;;;;;;6.07;5.57;;;14.00;59.00;;;;;;4986237;28;20054;-18
2022/12/10 12:14:55;;;;;;;5.82;5.35;;;14.00;59.00;;;;;;4980431;28;20043;-18
2022/12/10 12:17:30;;;;;;;5.57;5.10;;;14.00;59.00;;;;;;4981147;28;20049;-18
2022/12/10 12:19:59;;;;;;;5.60;5.10;;;14.00;59.00;;;;;;4969445;28;20049;-25
2022/12/10 12:22:29;;;;;;;5.47;5.07;;;14.00;58.90;;;;;;4969259;28;20070;-18
2022/12/10 12:25:06;;;;;;;5.18;4.75;;;13.90;59.00;;;;;;4984904;28;20042;-18
2022/12/10 12:27:34;;;;;;;5.95;5.45;;;13.90;59.00;;;;;;4984749;28;20085;-18
2022/12/10 12:30:15;;;;;;;5.68;5.20;;;13.90;59.10;;;;;;4984692;28;20526;-19
2022/12/10 12:33:00;;;;;;;5.63;5.13;;;13.90;59.20;;;;;;4984529;28;20066;-19
2022/12/10 12:35:44;;;;;;;5.95;5.35;;;13.90;59.30;;;;;;4985338;28;20108;-20
2022/12/10 12:38:36;;;;;;;6.00;5.50;;;13.90;59.20;;;;;;5016935;28;20054;-18
2022/12/10 12:41:07;;;;;;;6.03;5.03;;;13.90;59.10;;;;;;4989623;28;20101;-19
2022/12/10 12:43:35;;;;;;;5.25;4.85;;;14.00;59.00;;;;;;5020916;28;20128;-19
2022/12/10 12:46:02;;;;;;;5.28;4.88;;;13.90;59.00;;;;;;4990426;28;20495;-18
2022/12/10 12:48:36;;;;;;;5.70;5.10;;;13.90;59.00;;;;;;4983852;28;20050;-19
2022/12/10 12:51:09;;;;;;;5.60;5.20;;;14.00;59.10;;;;;;4987943;28;20074;-18
2022/12/10 12:53:34;;;;;;;5.28;4.88;;;14.00;59.00;;;;;;4987506;28;20070;-32
2022/12/10 12:56:24;;;;;;;6.03;5.28;;;14.00;59.10;;;;;;4988169;28;20069;-29
2022/12/10 12:59:16;;;;;;;5.70;5.30;;;14.00;59.10;;;;;;4987070;28;20121;-29
2022/12/10 13:01:56;;;;;;;5.30;4.90;;;14.00;59.10;;;;;;4991338;28;20577;-30
2022/12/10 13:04:22;;;;;;;5.10;4.80;;;14.00;59.00;;;;;;5015671;28;20047;-30
2022/12/10 13:07:13;;;;;;;4.90;4.35;;;14.00;58.80;;;;;;4987713;28;20050;-30